Billsburg, South Dakota
Current Conditions -  °F | °C
As of 6:55 AM on Thursday 18 Dec 2014 (Local Time) from KPHP Reporting Station
Overcast Overcast  
Wind Chill: 24°   Ceiling: 1200
Heat Index: 24°   Visibility: 10mi
Dew Point: 20°   Wind: 0mph
Humidity: 84%   Direction: NA
Pressure: 30.07"   Gusts: NA
Location:  44.4194°N, 101.806°W
Report Text: KPHP 181355Z AUTO 00000KT 10SM OVC012 M04/M07 A3007 RMK AO2 SLP210 T10441067
Loading
Personal Weather Stations






























Interactive Weather Map New forecast layout! Learn more

10-Day Weather Forecast

Advertisements
Track Severe Weather on mobile